Time;durP1;ratioP1;P1;durP2;ratioP2;P2;SDS_P1;SDS_P2;PMS_P1;PMS_P2;Temp;Humidity;BMP_temperature;BMP_pressure;BME280_temperature;BME280_humidity;BME280_pressure;Samples;Min_cycle;Max_cycle;Signal;HPM_P1;HPM_P2
2021/04/11 00:02:22;;;;;;;;;;;;;;;9.90;54.57;101130.91;5101327;28;20307;-84
2021/04/11 00:04:47;;;;;;;;;;;;;;;9.82;55.44;101122.19;5102176;28;19927;-86
2021/04/11 00:07:14;;;;;;;;;;;;;;;10.09;53.46;101113.94;5100243;28;19938;-85
2021/04/11 00:09:39;;;;;;;;;;;;;;;10.11;54.36;101125.53;5101474;28;19907;-86
2021/04/11 00:12:04;;;;;;;;;;;;;;;10.01;54.63;101126.84;5101560;28;19942;-85
2021/04/11 00:14:30;;;;;;;;;;;;;;;11.13;51.98;101116.66;5101705;28;19916;-85
2021/04/11 00:16:55;;;;;;;;;;;;;;;10.26;53.82;101115.91;5100019;28;20396;-85
2021/04/11 00:19:20;;;;;;;;;;;;;;;9.99;54.51;101109.84;5100573;28;20014;-86
2021/04/11 00:21:46;;;;;;;;;;;;;;;10.32;53.41;101112.09;5100351;28;19963;-86
2021/04/11 00:24:11;;;;;;;;;;;;;;;10.17;54.01;101114.47;5101784;28;19958;-85
2021/04/11 00:26:36;;;;;;;;;;;;;;;10.15;54.29;101108.25;5100587;28;19928;-85
2021/04/11 00:29:04;;;;;;;;;;;;;;;10.19;54.55;101098.19;5100941;28;19922;-86
2021/04/11 00:31:30;;;;;;;;;;;;;;;9.97;54.29;101112.59;5101165;28;19974;-85
2021/04/11 00:33:55;;;;;;;;;;;;;;;10.40;53.74;101115.34;5100750;28;20442;-87
2021/04/11 00:36:20;;;;;;;;;;;;;;;9.67;55.20;101125.53;5101629;28;19927;-86
2021/04/11 00:38:46;;;;;;;;;;;;;;;10.25;54.47;101124.97;5100878;28;20389;-85
2021/04/11 00:41:14;;;;;;;;;;;;;;;10.22;54.45;101122.38;5100865;28;19931;-86
2021/04/11 00:43:40;;;;;;;;;;;;;;;10.39;53.77;101122.59;5101978;28;19912;-87
2021/04/11 00:46:05;;;;;;;;;;;;;;;10.55;52.88;101103.91;5102619;28;19947;-88
2021/04/11 00:48:32;;;;;;;;;;;;;;;10.01;53.70;101107.94;5102063;28;19943;-87
2021/04/11 00:51:00;;;;;;;;;;;;;;;9.65;55.58;101105.81;5101189;28;19923;-86
2021/04/11 00:53:25;;;;;;;;;;;;;;;10.06;53.83;101106.81;5100571;28;19916;-87
2021/04/11 00:55:51;;;;;;;;;;;;;;;9.82;54.80;101111.41;5102302;28;19931;-86
2021/04/11 00:58:17;;;;;;;;;;;;;;;9.99;54.44;101110.69;5100847;28;19995;-85
2021/04/11 01:00:42;;;;;;;;;;;;;;;10.03;54.19;101097.97;5100748;28;19916;-87
2021/04/11 01:03:07;;;;;;;;;;;;;;;10.77;52.57;101086.72;5100950;28;19955;-85
2021/04/11 01:05:35;;;;;;;;;;;;;;;10.79;52.20;101096.53;5100155;28;19923;-85
2021/04/11 01:08:04;;;;;;;;;;;;;;;9.42;55.73;101104.88;5099590;28;20262;-86
2021/04/11 01:10:32;;;;;;;;;;;;;;;9.42;56.09;101102.19;5102331;28;19956;-87
2021/04/11 01:12:57;;;;;;;;;;;;;;;9.68;54.76;101087.63;5102641;28;19916;-86
2021/04/11 01:15:24;;;;;;;;;;;;;;;9.34;56.02;101093.47;5105725;28;19922;-86
2021/04/11 01:17:50;;;;;;;;;;;;;;;9.33;56.62;101107.91;5105110;28;20352;-87
2021/04/11 01:20:16;;;;;;;;;;;;;;;9.94;55.04;101113.59;5106788;28;19923;-88
2021/04/11 01:22:54;;;;;;;;;;;;;;;9.89;54.96;101112.03;5107090;28;19916;-86
2021/04/11 01:25:21;;;;;;;;;;;;;;;9.71;56.08;101094.75;5108345;28;19945;-88
2021/04/11 01:27:47;;;;;;;;;;;;;;;9.96;54.75;101096.44;5110430;28;19924;-88
2021/04/11 01:30:21;;;;;;;;;;;;;;;9.90;55.17;101090.38;5106605;28;19975;-86
2021/04/11 01:32:48;;;;;;;;;;;;;;;9.70;55.24;101101.09;5104828;28;19916;-87
2021/04/11 01:35:15;;;;;;;;;;;;;;;10.05;53.63;101098.75;5105938;28;19967;-87
2021/04/11 01:37:41;;;;;;;;;;;;;;;9.65;55.13;101103.09;5105616;28;20278;-86
2021/04/11 01:40:08;;;;;;;;;;;;;;;9.61;54.89;101109.56;5106984;28;19927;-86
2021/04/11 01:42:33;;;;;;;;;;;;;;;10.16;54.09;101112.72;5106076;28;19987;-87
2021/04/11 01:44:59;;;;;;;;;;;;;;;10.16;54.09;101099.22;5106404;28;19935;-87
2021/04/11 01:47:24;;;;;;;;;;;;;;;10.28;53.43;101098.69;5105362;28;19916;-84
2021/04/11 01:49:49;;;;;;;;;;;;;;;10.51;53.40;101113.09;5105884;28;19937;-86
2021/04/11 01:52:20;;;;;;;;;;;;;;;9.67;54.29;101098.50;5106831;28;19920;-86
2021/04/11 01:54:46;;;;;;;;;;;;;;;10.13;53.67;101088.53;5107391;28;20342;-86
2021/04/11 01:57:30;;;;;;;;;;;;;;;9.83;54.87;101087.94;5105936;28;19924;-84
2021/04/11 02:00:00;;;;;;;;;;;;;;;10.01;53.71;101091.72;5105732;28;19943;-84
2021/04/11 02:02:25;;;;;;;;;;;;;;;9.35;55.40;101092.56;5106247;28;19916;-88
2021/04/11 02:04:50;;;;;;;;;;;;;;;9.71;54.81;101102.84;5105814;28;19962;-87
2021/04/11 02:07:16;;;;;;;;;;;;;;;10.11;54.04;101110.22;5105676;28;19926;-88
2021/04/11 02:09:45;;;;;;;;;;;;;;;9.62;54.54;101114.91;5105790;28;19930;-85
2021/04/11 02:12:11;;;;;;;;;;;;;;;10.43;52.64;101115.22;5106239;28;20262;-86
2021/04/11 02:14:37;;;;;;;;;;;;;;;10.06;53.35;101120.31;5106460;28;19983;-87
2021/04/11 02:17:02;;;;;;;;;;;;;;;9.68;55.01;101102.97;5106721;28;20069;-85
2021/04/11 02:19:28;;;;;;;;;;;;;;;9.19;55.76;101117.44;5105353;28;19920;-82
2021/04/11 02:21:53;;;;;;;;;;;;;;;9.96;53.65;101115.38;5105510;28;19916;-87
2021/04/11 02:24:19;;;;;;;;;;;;;;;9.81;54.04;101098.81;5106447;28;19912;-86
2021/04/11 02:26:45;;;;;;;;;;;;;;;10.21;53.08;101101.72;5106280;28;19912;-85
2021/04/11 02:29:15;;;;;;;;;;;;;;;10.01;53.45;101122.34;5104474;28;19916;-86
2021/04/11 02:31:40;;;;;;;;;;;;;;;10.42;52.68;101129.72;5105068;28;19920;-87
2021/04/11 02:34:07;;;;;;;;;;;;;;;9.49;54.77;101133.38;5105723;28;20392;-87
2021/04/11 02:36:35;;;;;;;;;;;;;;;10.46;52.86;101137.63;5105742;28;19920;-87
2021/04/11 02:39:03;;;;;;;;;;;;;;;10.65;52.19;101131.44;5106969;28;19967;-86
2021/04/11 02:41:29;;;;;;;;;;;;;;;10.28;52.57;101135.66;5105367;28;19950;-85
2021/04/11 02:43:54;;;;;;;;;;;;;;;9.84;53.92;101138.34;5105272;28;20274;-85
2021/04/11 02:46:20;;;;;;;;;;;;;;;10.01;53.35;101134.97;5105895;28;19935;-85
2021/04/11 02:48:47;;;;;;;;;;;;;;;10.40;53.00;101137.00;5106301;28;20354;-86
2021/04/11 02:51:12;;;;;;;;;;;;;;;10.22;53.25;101139.50;5104218;28;19923;-86
2021/04/11 02:53:39;;;;;;;;;;;;;;;9.67;55.05;101136.31;5105501;28;19912;-87
2021/04/11 02:56:04;;;;;;;;;;;;;;;10.45;53.07;101132.28;5104564;28;19920;-85
2021/04/11 02:58:30;;;;;;;;;;;;;;;10.05;53.49;101148.28;5105402;28;19924;-88
2021/04/11 03:00:55;;;;;;;;;;;;;;;10.23;53.34;101141.25;5088150;28;19969;-86
2021/04/11 03:03:20;;;;;;;;;;;;;;;10.19;53.40;101136.94;5104643;28;19980;-86
2021/04/11 03:05:45;;;;;;;;;;;;;;;9.49;54.95;101141.50;5104531;28;19927;-86
2021/04/11 03:08:13;;;;;;;;;;;;;;;9.96;53.87;101131.59;5105041;28;19955;-86
2021/04/11 03:10:54;;;;;;;;;;;;;;;10.07;53.23;101145.53;5105435;28;20380;-86
2021/04/11 03:13:20;;;;;;;;;;;;;;;10.06;53.68;101158.16;5104301;28;19951;-85
2021/04/11 03:15:46;;;;;;;;;;;;;;;9.33;55.24;101161.91;5104900;28;19920;-87
2021/04/11 03:18:12;;;;;;;;;;;;;;;10.05;53.50;101152.81;5104955;28;19950;-88
2021/04/11 03:20:39;;;;;;;;;;;;;;;9.73;54.52;101157.69;5104735;28;19920;-87
2021/04/11 03:23:06;;;;;;;;;;;;;;;9.86;54.09;101150.00;5105296;28;19916;-86
2021/04/11 03:25:33;;;;;;;;;;;;;;;10.10;53.35;101151.72;5105786;28;19931;-88
2021/04/11 03:28:02;;;;;;;;;;;;;;;10.17;53.60;101168.53;5106532;28;19955;-87
2021/04/11 03:30:30;;;;;;;;;;;;;;;9.95;53.50;101163.16;5105902;28;19923;-85
2021/04/11 03:33:01;;;;;;;;;;;;;;;9.98;53.43;101152.22;5104577;28;19920;-87
2021/04/11 03:35:28;;;;;;;;;;;;;;;10.13;52.55;101164.22;5103839;28;19920;-87
2021/04/11 03:37:55;;;;;;;;;;;;;;;9.91;53.58;101162.38;5104800;28;20332;-87
2021/04/11 03:40:23;;;;;;;;;;;;;;;9.74;54.49;101167.56;5105296;28;19916;-87
2021/04/11 03:42:49;;;;;;;;;;;;;;;9.55;53.39;101170.97;5104646;28;19958;-88
2021/04/11 03:45:15;;;;;;;;;;;;;;;9.62;54.51;101165.31;5104532;28;19921;-88
2021/04/11 03:47:44;;;;;;;;;;;;;;;9.69;53.66;101166.84;5105055;28;19923;-87
2021/04/11 03:50:09;;;;;;;;;;;;;;;10.11;52.78;101161.59;5103834;28;19916;-87
2021/04/11 03:52:46;;;;;;;;;;;;;;;9.79;53.30;101162.00;5103289;28;19916;-87
2021/04/11 03:55:17;;;;;;;;;;;;;;;9.50;54.26;101172.97;5104469;28;19942;-87
2021/04/11 03:57:53;;;;;;;;;;;;;;;9.81;53.96;101170.91;5103066;28;19969;-89
2021/04/11 04:00:29;;;;;;;;;;;;;;;10.03;53.27;101165.53;5104970;28;19932;-88
2021/04/11 04:02:57;;;;;;;;;;;;;;;9.87;53.13;101176.97;5104609;28;19927;-86
2021/04/11 04:05:24;;;;;;;;;;;;;;;9.68;53.32;101187.59;5104022;28;19916;-86
2021/04/11 04:07:52;;;;;;;;;;;;;;;9.98;52.72;101189.16;5104995;28;19916;-86
2021/04/11 04:10:19;;;;;;;;;;;;;;;10.25;51.86;101174.53;5104690;28;19951;-87
2021/04/11 04:12:44;;;;;;;;;;;;;;;9.17;53.85;101186.78;5103472;28;20014;-86
2021/04/11 04:15:21;;;;;;;;;;;;;;;9.62;53.11;101181.53;5103030;28;19904;-85
2021/04/11 04:17:46;;;;;;;;;;;;;;;9.30;53.48;101189.03;5103521;28;19923;-88
2021/04/11 04:20:11;;;;;;;;;;;;;;;10.09;52.61;101189.63;5102953;28;19916;-86
2021/04/11 04:22:46;;;;;;;;;;;;;;;10.31;51.33;101196.84;5101530;28;19916;-85
2021/04/11 04:25:14;;;;;;;;;;;;;;;9.36;53.84;101196.91;5099849;28;19920;-85
2021/04/11 04:27:46;;;;;;;;;;;;;;;10.15;51.36;101202.88;5100953;28;20285;-87
2021/04/11 04:30:21;;;;;;;;;;;;;;;10.18;52.03;101200.06;5101684;28;19963;-86
2021/04/11 04:32:46;;;;;;;;;;;;;;;9.82;52.49;101205.97;5101472;28;19938;-86
2021/04/11 04:35:26;;;;;;;;;;;;;;;9.99;51.35;101207.13;5101256;28;19991;-86
2021/04/11 04:38:03;;;;;;;;;;;;;;;9.82;52.04;101211.38;5100988;28;19920;-85
2021/04/11 04:40:28;;;;;;;;;;;;;;;9.94;51.51;101219.00;5099760;28;19920;-86
2021/04/11 04:42:56;;;;;;;;;;;;;;;10.33;50.59;101197.69;5099888;28;19921;-86
2021/04/11 04:45:27;;;;;;;;;;;;;;;9.34;52.88;101206.88;5100445;28;19930;-86
2021/04/11 04:47:59;;;;;;;;;;;;;;;9.42;52.07;101206.59;5100325;28;19904;-87
2021/04/11 04:50:30;;;;;;;;;;;;;;;8.90;53.59;101212.06;5103266;28;19924;-88
2021/04/11 04:53:11;;;;;;;;;;;;;;;8.64;53.76;101208.44;5103202;28;19928;-86
2021/04/11 04:55:38;;;;;;;;;;;;;;;9.35;53.21;101205.97;5104535;28;19916;-85
2021/04/11 04:58:11;;;;;;;;;;;;;;;9.80;51.53;101206.97;5104934;28;19912;-85
2021/04/11 05:00:38;;;;;;;;;;;;;;;9.08;53.51;101208.72;5105133;28;20034;-85
2021/04/11 05:03:08;;;;;;;;;;;;;;;9.22;53.01;101213.59;5104584;28;20007;-87
2021/04/11 05:05:39;;;;;;;;;;;;;;;9.21;53.43;101215.44;5103118;28;19917;-87
2021/04/11 05:08:10;;;;;;;;;;;;;;;9.58;51.99;101230.25;5112635;28;19920;-86
2021/04/11 05:10:48;;;;;;;;;;;;;;;9.79;51.71;101233.09;5106029;28;19916;-88
2021/04/11 05:13:19;;;;;;;;;;;;;;;10.00;51.27;101236.81;5104813;28;19916;-86
2021/04/11 05:15:48;;;;;;;;;;;;;;;9.73;51.56;101233.34;5106589;28;19916;-87
2021/04/11 05:18:17;;;;;;;;;;;;;;;10.40;49.22;101237.97;5104281;28;19943;-87
2021/04/11 05:20:45;;;;;;;;;;;;;;;10.74;49.09;101246.50;5105101;28;19959;-85
2021/04/11 05:23:13;;;;;;;;;;;;;;;9.38;51.39;101249.03;5106443;28;19901;-87
2021/04/11 05:25:41;;;;;;;;;;;;;;;10.20;49.79;101244.13;5106771;28;19937;-86
2021/04/11 05:28:10;;;;;;;;;;;;;;;10.09;50.19;101251.78;5106677;28;19925;-86
2021/04/11 05:30:36;;;;;;;;;;;;;;;10.01;49.70;101253.91;5105557;28;20358;-86
2021/04/11 05:33:01;;;;;;;;;;;;;;;10.52;48.94;101252.78;5107409;28;19926;-87
2021/04/11 05:35:28;;;;;;;;;;;;;;;10.33;49.50;101249.97;5105328;28;20022;-87
2021/04/11 05:38:05;;;;;;;;;;;;;;;10.28;49.83;101255.53;5105762;28;19974;-85
2021/04/11 05:40:33;;;;;;;;;;;;;;;9.93;49.89;101263.19;5104997;28;19916;-86
2021/04/11 05:43:02;;;;;;;;;;;;;;;9.07;51.31;101276.22;5104589;28;19916;-86
2021/04/11 05:45:47;;;;;;;;;;;;;;;9.85;49.99;101275.25;5104889;28;19927;-87
2021/04/11 05:48:21;;;;;;;;;;;;;;;10.43;48.94;101286.53;5106587;28;20369;-85
2021/04/11 05:51:19;;;;;;;;;;;;;;;9.92;50.03;101293.88;5105300;28;19942;-87
2021/04/11 05:53:49;;;;;;;;;;;;;;;9.78;49.74;101293.47;5081783;28;19916;-87
2021/04/11 05:56:25;;;;;;;;;;;;;;;9.62;49.75;101301.28;5104262;28;19938;-88
2021/04/11 05:58:57;;;;;;;;;;;;;;;9.61;49.66;101290.53;5102314;28;19916;-86
2021/04/11 06:01:29;;;;;;;;;;;;;;;9.08;51.39;101310.41;5103477;28;19916;-87
2021/04/11 06:04:00;;;;;;;;;;;;;;;10.35;48.75;101306.69;5096697;28;20014;-85
2021/04/11 06:06:37;;;;;;;;;;;;;;;10.66;48.19;101311.78;5083730;28;20003;-88
2021/04/11 06:09:08;;;;;;;;;;;;;;;10.92;47.81;101312.53;5086715;28;19983;-87
2021/04/11 06:11:52;;;;;;;;;;;;;;;10.12;49.01;101321.97;5084015;28;19968;-86
2021/04/11 06:14:19;;;;;;;;;;;;;;;10.19;48.82;101323.50;5080483;28;19920;-87
2021/04/11 06:16:47;;;;;;;;;;;;;;;9.74;50.23;101316.16;5097502;28;19981;-88
2021/04/11 06:19:12;;;;;;;;;;;;;;;10.28;49.40;101324.94;5102146;28;19920;-89
2021/04/11 06:21:51;;;;;;;;;;;;;;;10.91;48.41;101319.75;5082005;28;19923;-89
2021/04/11 06:24:40;;;;;;;;;;;;;;;10.32;49.25;101331.13;5082015;28;20027;-88
2021/04/11 06:27:07;;;;;;;;;;;;;;;10.00;49.55;101333.25;5103722;28;19924;-88
2021/04/11 06:29:36;;;;;;;;;;;;;;;10.40;49.25;101337.13;5099928;28;19922;-88
2021/04/11 06:32:12;;;;;;;;;;;;;;;10.89;47.92;101326.19;5102317;28;19920;-91
2021/04/11 06:34:45;;;;;;;;;;;;;;;10.36;48.63;101332.81;5102316;28;19916;-90
2021/04/11 06:37:11;;;;;;;;;;;;;;;10.74;48.56;101331.28;5101674;28;19916;-90
2021/04/11 06:39:41;;;;;;;;;;;;;;;10.08;49.62;101336.53;5100616;28;19966;-89
2021/04/11 06:42:13;;;;;;;;;;;;;;;10.60;49.39;101337.25;5102177;28;19985;-91
2021/04/11 06:44:54;;;;;;;;;;;;;;;10.88;48.78;101348.78;5101664;28;19959;-90
2021/04/11 06:47:37;;;;;;;;;;;;;;;10.85;48.69;101357.03;5101729;28;19923;-90
2021/04/11 06:50:21;;;;;;;;;;;;;;;10.95;48.23;101359.28;5102279;28;19968;-91
2021/04/11 06:52:52;;;;;;;;;;;;;;;11.09;47.87;101352.44;5123994;28;19916;-92
2021/04/11 06:55:36;;;;;;;;;;;;;;;10.98;48.91;101353.75;5125157;28;20361;-90
2021/04/11 06:58:20;;;;;;;;;;;;;;;11.02;47.64;101356.34;5127225;28;20437;-89
2021/04/11 07:01:04;;;;;;;;;;;;;;;11.42;47.51;101357.38;5126252;28;19965;-89
2021/04/11 07:03:48;;;;;;;;;;;;;;;11.26;48.40;101363.44;5126727;28;20390;-89
2021/04/11 07:06:43;;;;;;;;;;;;;;;12.17;45.79;101353.19;5126573;28;19916;-90
2021/04/11 07:09:11;;;;;;;;;;;;;;;11.76;47.19;101347.75;5112264;28;19937;-86
2021/04/11 07:11:39;;;;;;;;;;;;;;;11.54;46.76;101346.00;5119463;28;19940;-87
2021/04/11 07:14:14;;;;;;;;;;;;;;;11.49;47.05;101350.75;5121412;28;19912;-88
2021/04/11 07:16:57;;;;;;;;;;;;;;;10.69;48.60;101349.53;5121715;28;19937;-89
2021/04/11 07:19:41;;;;;;;;;;;;;;;11.37;47.98;101352.16;5122465;28;19927;-87
2021/04/11 07:22:12;;;;;;;;;;;;;;;10.65;49.67;101356.00;5115700;28;20741;-87
2021/04/11 07:24:37;;;;;;;;;;;;;;;11.62;47.76;101356.50;5080932;28;20271;-88
2021/04/11 07:27:18;;;;;;;;;;;;;;;11.68;47.86;101346.28;5083981;28;19924;-89
2021/04/11 07:30:02;;;;;;;;;;;;;;;12.17;46.25;101353.19;5081738;28;20262;-89
2021/04/11 07:32:40;;;;;;;;;;;;;;;12.23;46.07;101347.47;5078076;28;19970;-84
2021/04/11 07:35:08;;;;;;;;;;;;;;;12.10;47.02;101363.41;5077142;28;19917;-83
2021/04/11 07:37:34;;;;;;;;;;;;;;;12.76;46.51;101368.44;5077076;28;19951;-81
2021/04/11 07:40:18;;;;;;;;;;;;;;;12.19;45.92;101364.84;5076515;28;19916;-84
2021/04/11 07:42:50;;;;;;;;;;;;;;;12.84;45.71;101369.91;5076236;28;19970;-85
2021/04/11 07:45:24;;;;;;;;;;;;;;;12.76;46.05;101379.31;5076499;28;19924;-83
2021/04/11 07:48:04;;;;;;;;;;;;;;;13.00;44.39;101381.78;5078046;28;19970;-83
2021/04/11 07:50:30;;;;;;;;;;;;;;;12.81;45.70;101386.38;5077203;28;19917;-84
2021/04/11 07:53:11;;;;;;;;;;;;;;;12.91;45.51;101387.69;5076909;28;19920;-85
2021/04/11 07:55:36;;;;;;;;;;;;;;;12.96;44.80;101393.75;5089002;28;19942;-83
2021/04/11 07:58:14;;;;;;;;;;;;;;;13.37;44.81;101393.56;5095107;28;19920;-84
2021/04/11 08:00:42;;;;;;;;;;;;;;;14.11;43.36;101391.56;5096164;28;19949;-82
2021/04/11 08:03:21;;;;;;;;;;;;;;;13.81;44.40;101397.66;5094352;28;19919;-81
2021/04/11 08:05:55;;;;;;;;;;;;;;;14.43;43.04;101392.56;5084745;28;19932;-83
2021/04/11 08:08:39;;;;;;;;;;;;;;;15.11;41.72;101396.91;5084077;28;19920;-82
2021/04/11 08:11:10;;;;;;;;;;;;;;;13.91;43.73;101407.09;5089371;28;19935;-83
2021/04/11 08:13:41;;;;;;;;;;;;;;;14.35;42.28;101402.97;5084023;28;19928;-84
2021/04/11 08:16:25;;;;;;;;;;;;;;;13.86;42.36;101400.13;5130465;27;19968;-84
2021/04/11 08:19:00;;;;;;;;;;;;;;;13.31;42.72;101407.44;5104560;28;19963;-81
2021/04/11 08:21:43;;;;;;;;;;;;;;;13.74;42.51;101410.72;5096626;28;20011;-83
2021/04/11 08:24:12;;;;;;;;;;;;;;;13.75;42.32;101412.50;5097898;28;20266;-85
2021/04/11 08:26:41;;;;;;;;;;;;;;;13.77;41.24;101417.84;5086436;28;19924;-85
2021/04/11 08:29:06;;;;;;;;;;;;;;;13.32;42.35;101419.19;5078170;28;19916;-83
2021/04/11 08:31:38;;;;;;;;;;;;;;;13.41;41.83;101422.34;5084023;28;19927;-84
2021/04/11 08:34:22;;;;;;;;;;;;;;;13.18;42.89;101426.19;5099120;28;19915;-86
2021/04/11 08:36:54;;;;;;;;;;;;;;;13.39;41.49;101429.72;5090479;28;19924;-86
2021/04/11 08:39:42;;;;;;;;;;;;;;;13.11;41.79;101439.19;5098675;28;20373;-86
2021/04/11 08:42:20;;;;;;;;;;;;;;;12.33;42.62;101435.59;5096588;28;20024;-85
2021/04/11 08:44:45;;;;;;;;;;;;;;;12.68;42.23;101432.22;5098408;28;19923;-88
2021/04/11 08:47:16;;;;;;;;;;;;;;;13.12;41.50;101440.06;5099112;28;20390;-87
2021/04/11 08:49:46;;;;;;;;;;;;;;;13.03;42.38;101457.69;5098850;28;20030;-86
2021/04/11 08:52:31;;;;;;;;;;;;;;;13.17;40.40;101448.00;5097173;28;19920;-85
2021/04/11 08:55:02;;;;;;;;;;;;;;;13.13;41.77;101452.69;5078378;28;19985;-85
2021/04/11 08:57:36;;;;;;;;;;;;;;;13.33;40.03;101454.44;5077897;28;19924;-84
2021/04/11 09:00:04;;;;;;;;;;;;;;;12.98;39.87;101454.31;5078908;28;19920;-86
2021/04/11 09:02:35;;;;;;;;;;;;;;;13.42;40.48;101464.88;5082673;28;19916;-84
2021/04/11 09:05:18;;;;;;;;;;;;;;;13.52;39.85;101470.72;5095612;28;19951;-83
2021/04/11 09:07:55;;;;;;;;;;;;;;;13.47;40.12;101467.38;5096740;28;20002;-83
2021/04/11 09:10:36;;;;;;;;;;;;;;;12.60;40.41;101478.72;5096120;28;19916;-82
2021/04/11 09:13:20;;;;;;;;;;;;;;;13.67;39.80;101473.66;5098729;28;19916;-82
2021/04/11 09:15:45;;;;;;;;;;;;;;;13.70;39.39;101463.50;5097667;28;19916;-82
2021/04/11 09:18:24;;;;;;;;;;;;;;;14.09;39.05;101478.72;5098840;28;19946;-81
2021/04/11 09:21:09;;;;;;;;;;;;;;;13.89;38.62;101473.41;5097907;28;20373;-84
2021/04/11 09:24:00;;;;;;;;;;;;;;;13.49;39.57;101486.31;5089809;28;19916;-84
2021/04/11 09:26:25;;;;;;;;;;;;;;;14.31;38.19;101486.63;5131469;28;19936;-84
2021/04/11 09:28:53;;;;;;;;;;;;;;;13.48;39.15;101488.16;5096681;28;19934;-83
2021/04/11 09:31:28;;;;;;;;;;;;;;;14.67;38.19;101487.47;5096382;28;19913;-82
2021/04/11 09:34:02;;;;;;;;;;;;;;;14.74;39.00;101485.31;5096435;28;20370;-81
2021/04/11 09:36:48;;;;;;;;;;;;;;;14.12;39.42;101480.41;5098051;28;19923;-87
2021/04/11 09:39:26;;;;;;;;;;;;;;;13.40;38.89;101493.97;5099241;28;20004;-84
2021/04/11 09:41:54;;;;;;;;;;;;;;;13.75;38.40;101493.16;5100927;28;19912;-85
2021/04/11 09:44:32;;;;;;;;;;;;;;;13.25;38.79;101489.25;5100030;28;19916;-85
2021/04/11 09:47:07;;;;;;;;;;;;;;;13.92;37.68;101493.19;5099582;28;20092;-86
2021/04/11 09:49:47;;;;;;;;;;;;;;;13.77;38.13;101489.41;5101183;28;19931;-85
2021/04/11 09:52:24;;;;;;;;;;;;;;;14.09;37.18;101497.75;5104481;28;19920;-85
2021/04/11 09:55:08;;;;;;;;;;;;;;;13.45;36.56;101501.88;5103286;28;20007;-86
2021/04/11 09:57:52;;;;;;;;;;;;;;;13.81;35.73;101501.91;5102690;28;20020;-85
2021/04/11 10:00:23;;;;;;;;;;;;;;;13.87;37.83;101497.97;5103842;28;19964;-84
2021/04/11 10:03:07;;;;;;;;;;;;;;;14.77;36.76;101501.50;5103669;28;19931;-86
2021/04/11 10:05:32;;;;;;;;;;;;;;;15.20;36.61;101490.91;5104219;28;19951;-85
2021/04/11 10:08:08;;;;;;;;;;;;;;;14.80;37.93;101504.91;5104110;28;20301;-83
2021/04/11 10:10:52;;;;;;;;;;;;;;;15.24;35.36;101504.25;5072703;22;19975;-85
2021/04/11 10:13:27;;;;;;;;;;;;;;;15.18;37.03;101501.88;5028345;28;20290;-82
2021/04/11 10:16:11;;;;;;;;;;;;;;;14.70;36.83;101506.38;5032472;28;20568;-86
2021/04/11 10:18:46;;;;;;;;;;;;;;;15.35;35.18;101508.22;5032746;28;19917;-86
2021/04/11 10:21:29;;;;;;;;;;;;;;;15.16;36.33;101500.25;5033938;28;19924;-85
2021/04/11 10:24:13;;;;;;;;;;;;;;;14.69;37.25;101512.81;5028996;28;19905;-86
2021/04/11 10:27:04;;;;;;;;;;;;;;;14.27;36.63;101519.53;5030281;28;19918;-86
2021/04/11 10:29:36;;;;;;;;;;;;;;;15.06;35.45;101524.38;5020535;28;19924;-86
2021/04/11 10:32:07;;;;;;;;;;;;;;;15.97;34.71;101523.78;5036424;28;19921;-85
2021/04/11 10:34:38;;;;;;;;;;;;;;;15.26;35.36;101527.84;5029485;28;19936;-86
2021/04/11 10:37:04;;;;;;;;;;;;;;;14.50;35.93;101540.97;5034173;28;19968;-86
2021/04/11 10:39:43;;;;;;;;;;;;;;;15.04;34.22;101532.66;5027696;28;19979;-84
2021/04/11 10:42:27;;;;;;;;;;;;;;;15.03;35.38;101538.19;5036925;28;19921;-84
2021/04/11 10:45:11;;;;;;;;;;;;;;;16.47;32.39;101539.84;5027478;28;19917;-86
2021/04/11 10:47:55;;;;;;;;;;;;;;;15.64;34.46;101538.41;5029442;28;20371;-85
2021/04/11 10:50:28;;;;;;;;;;;;;;;15.80;33.41;101554.78;5026400;28;19923;-85
2021/04/11 10:53:01;;;;;;;;;;;;;;;15.74;32.64;101547.81;5048239;28;19932;-85
2021/04/11 10:55:48;;;;;;;;;;;;;;;16.17;33.84;101548.03;5040033;28;19917;-86
2021/04/11 10:58:35;;;;;;;;;;;;;;;16.71;32.66;101552.06;5041290;28;19939;-84
2021/04/11 11:01:19;;;;;;;;;;;;;;;16.90;32.93;101554.56;5039422;28;19976;-85
2021/04/11 11:03:48;;;;;;;;;;;;;;;15.48;36.16;101560.22;5037045;28;19956;-84
2021/04/11 11:06:19;;;;;;;;;;;;;;;15.97;36.64;101573.78;5041727;28;19921;-85
2021/04/11 11:08:59;;;;;;;;;;;;;;;15.76;36.67;101568.59;5041123;28;19953;-84
2021/04/11 11:11:31;;;;;;;;;;;;;;;15.21;38.21;101585.34;5021481;28;19925;-85
2021/04/11 11:13:59;;;;;;;;;;;;;;;14.96;38.28;101573.06;5020202;28;19923;-86
2021/04/11 11:16:43;;;;;;;;;;;;;;;15.18;37.80;101569.16;5020801;28;20264;-85
2021/04/11 11:19:17;;;;;;;;;;;;;;;15.63;37.84;101577.56;5019189;28;19984;-85
2021/04/11 11:21:42;;;;;;;;;;;;;;;13.90;37.80;101584.00;5019780;28;19901;-86
2021/04/11 11:24:18;;;;;;;;;;;;;;;14.49;38.00;101576.44;5018605;28;19918;-85
2021/04/11 11:26:43;;;;;;;;;;;;;;;15.41;35.87;101589.69;5017941;28;19913;-84
2021/04/11 11:29:15;;;;;;;;;;;;;;;14.96;37.75;101591.25;5017014;28;19999;-86
2021/04/11 11:31:52;;;;;;;;;;;;;;;14.73;36.44;101590.63;5016910;28;20295;-85
2021/04/11 11:34:37;;;;;;;;;;;;;;;15.96;34.39;101593.88;5016595;28;20009;-86
2021/04/11 11:37:21;;;;;;;;;;;;;;;14.83;34.82;101597.38;5023967;28;19921;-85
2021/04/11 11:40:07;;;;;;;;;;;;;;;14.15;35.64;101594.53;5034457;28;20025;-85
2021/04/11 11:42:48;;;;;;;;;;;;;;;14.64;36.49;101600.16;5032048;28;19932;-86
2021/04/11 11:45:25;;;;;;;;;;;;;;;15.62;35.11;101603.94;5037244;28;19925;-84
2021/04/11 11:47:58;;;;;;;;;;;;;;;16.56;33.94;101594.88;5037777;28;20353;-85
2021/04/11 11:50:35;;;;;;;;;;;;;;;15.61;33.91;101594.03;5030944;28;19929;-82
2021/04/11 11:53:06;;;;;;;;;;;;;;;16.58;33.58;101615.66;5037315;28;19925;-84
2021/04/11 11:55:40;;;;;;;;;;;;;;;16.37;34.23;101608.78;5036399;28;19908;-86
2021/04/11 11:58:11;;;;;;;;;;;;;;;16.51;33.16;101610.66;5037796;28;19939;-85
2021/04/11 12:00:41;;;;;;;;;;;;;;;15.21;34.65;101618.91;5037933;28;19917;-84
2021/04/11 12:03:29;;;;;;;;;;;;;;;15.90;34.77;101610.59;5036197;28;19925;-86
2021/04/11 12:05:57;;;;;;;;;;;;;;;16.19;33.29;101618.94;5036509;28;19917;-85
2021/04/11 12:08:35;;;;;;;;;;;;;;;15.97;34.25;101624.75;5030875;28;20377;-87
2021/04/11 12:11:01;;;;;;;;;;;;;;;16.28;33.93;101626.56;5039996;28;20279;-87
2021/04/11 12:13:37;;;;;;;;;;;;;;;15.35;34.59;101636.38;5039793;28;19924;-90
2021/04/11 12:16:20;;;;;;;;;;;;;;;15.11;35.04;101636.72;5038814;28;20020;-83
2021/04/11 12:18:54;;;;;;;;;;;;;;;15.65;34.36;101649.28;5034182;28;19918;-86
2021/04/11 12:21:19;;;;;;;;;;;;;;;16.93;32.07;101648.16;5035017;28;19932;-84
2021/04/11 12:23:47;;;;;;;;;;;;;;;16.45;32.64;101655.59;5035166;28;19922;-86
2021/04/11 12:26:17;;;;;;;;;;;;;;;16.63;31.30;101659.97;5035876;28;19963;-86
2021/04/11 12:28:43;;;;;;;;;;;;;;;16.93;31.06;101653.63;5042788;28;19965;-88
2021/04/11 12:31:19;;;;;;;;;;;;;;;16.31;32.80;101661.88;5037563;28;19917;-86
2021/04/11 12:33:54;;;;;;;;;;;;;;;15.72;31.69;101667.06;5042681;28;19924;-86
2021/04/11 12:36:45;;;;;;;;;;;;;;;15.56;33.19;101673.34;5045075;28;20290;-89
2021/04/11 12:39:21;;;;;;;;;;;;;;;16.18;31.86;101674.50;5042726;28;19926;-85
2021/04/11 12:42:05;;;;;;;;;;;;;;;16.63;32.03;101673.63;5042647;28;19921;-87
2021/04/11 12:44:53;;;;;;;;;;;;;;;15.78;31.69;101672.19;5035233;28;19940;-86
2021/04/11 12:47:24;;;;;;;;;;;;;;;14.80;33.61;101681.97;5039334;28;19979;-86
2021/04/11 12:49:49;;;;;;;;;;;;;;;15.73;32.30;101685.16;5039656;28;19917;-84
2021/04/11 12:52:21;;;;;;;;;;;;;;;15.32;33.91;101688.34;5022816;28;19989;-86
2021/04/11 12:55:02;;;;;;;;;;;;;;;15.88;32.54;101695.28;5037731;28;19928;-87
2021/04/11 12:57:29;;;;;;;;;;;;;;;15.36;33.05;101698.13;5042058;28;19970;-85
2021/04/11 13:00:00;;;;;;;;;;;;;;;15.69;32.87;101697.25;5048468;28;19924;-84
2021/04/11 13:02:49;;;;;;;;;;;;;;;14.27;33.51;101696.44;5043851;28;19921;-85
2021/04/11 13:05:35;;;;;;;;;;;;;;;16.37;31.84;101707.09;5042680;28;19982;-86
2021/04/11 13:08:03;;;;;;;;;;;;;;;16.29;30.51;101711.13;5043598;28;19947;-82